createdAt,value
2019-05-11T00:00:34.673Z,485.41
2019-05-11T00:01:34.675Z,481.89
2019-05-11T00:02:34.655Z,482.47
2019-05-11T00:03:34.683Z,487.64
2019-05-11T00:04:34.631Z,510.40
2019-05-11T00:05:34.637Z,492.15
2019-05-11T00:06:34.614Z,511.38
2019-05-11T00:07:34.609Z,488.61
2019-05-11T00:08:34.619Z,509.22
2019-05-11T00:09:34.580Z,489.02
2019-05-11T00:10:34.576Z,508.30
2019-05-11T00:11:34.559Z,485.23
2019-05-11T00:12:34.549Z,506.90
2019-05-11T00:13:34.555Z,484.06
2019-05-11T00:14:34.518Z,505.59
2019-05-11T00:15:34.523Z,484.78
2019-05-11T00:16:34.508Z,507.08
2019-05-11T00:17:34.493Z,481.82
2019-05-11T00:18:34.495Z,481.56
2019-05-11T00:19:34.463Z,487.76
2019-05-11T00:20:34.453Z,489.71
2019-05-11T00:21:34.445Z,487.79
2019-05-11T00:22:34.436Z,484.38
2019-05-11T00:23:34.439Z,489.67
2019-05-11T00:24:34.414Z,485.50
2019-05-11T00:25:34.405Z,487.32
2019-05-11T00:26:34.385Z,488.81
2019-05-11T00:27:34.389Z,488.77
2019-05-11T00:28:34.408Z,487.58
2019-05-11T00:29:34.354Z,487.38
2019-05-11T00:30:34.343Z,488.17
2019-05-11T00:31:34.340Z,486.37
2019-05-11T00:32:34.332Z,487.64
2019-05-11T00:33:34.324Z,487.29
2019-05-11T00:34:34.326Z,487.07
2019-05-11T00:35:34.290Z,488.42
2019-05-11T00:36:34.272Z,487.23
2019-05-11T00:37:34.276Z,487.37
2019-05-11T00:38:34.256Z,485.07
2019-05-11T00:39:34.276Z,488.31
2019-05-11T00:40:34.234Z,489.50
2019-05-11T00:41:34.237Z,488.35
2019-05-11T00:42:34.224Z,485.78
2019-05-11T00:43:34.202Z,489.16
2019-05-11T00:44:34.217Z,488.33
2019-05-11T00:45:34.180Z,486.20
2019-05-11T00:46:34.173Z,486.48
2019-05-11T00:47:34.151Z,485.30
2019-05-11T00:48:34.145Z,484.39
2019-05-11T00:49:34.152Z,486.08
2019-05-11T00:50:39.245Z,486.39
2019-05-11T00:51:35.126Z,484.25
2019-05-11T00:52:34.098Z,485.60
2019-05-11T00:53:34.091Z,487.03
2019-05-11T00:54:34.089Z,485.73
2019-05-11T00:55:34.069Z,488.04
2019-05-11T00:56:34.066Z,491.81
2019-05-11T00:57:34.055Z,486.85
2019-05-11T00:58:34.035Z,488.94
2019-05-11T00:59:34.046Z,487.95
2019-05-11T01:00:34.009Z,485.88
2019-05-11T01:01:34.007Z,486.83
2019-05-11T01:02:33.989Z,486.36
2019-05-11T01:03:33.982Z,484.39
2019-05-11T01:04:33.998Z,486.17
2019-05-11T01:05:33.956Z,488.32
2019-05-11T01:06:33.960Z,486.89
2019-05-11T01:07:33.972Z,488.35
2019-05-11T01:08:33.925Z,483.01
2019-05-11T01:09:33.936Z,481.51
2019-05-11T01:11:34.878Z,484.85
2019-05-11T01:12:33.881Z,482.08
2019-05-11T01:13:33.865Z,489.39
2019-05-11T01:14:33.871Z,489.91
2019-05-11T01:15:33.844Z,488.96
2019-05-11T01:16:33.840Z,488.54
2019-05-11T01:17:33.823Z,486.37
2019-05-11T01:18:33.819Z,491.16
2019-05-11T01:19:33.814Z,489.48
2019-05-11T01:20:33.801Z,488.76
2019-05-11T01:21:33.775Z,488.55
2019-05-11T01:22:33.783Z,489.48
2019-05-11T01:23:33.761Z,486.91
2019-05-11T01:24:33.765Z,489.76
2019-05-11T01:25:33.741Z,487.70
2019-05-11T01:26:33.723Z,489.84
2019-05-11T01:27:33.712Z,489.53
2019-05-11T01:28:33.695Z,488.34
2019-05-11T01:29:33.687Z,490.37
2019-05-11T01:30:33.700Z,489.37
2019-05-11T01:31:33.669Z,485.34
2019-05-11T01:32:33.663Z,489.19
2019-05-11T01:33:33.661Z,488.33
2019-05-11T01:34:33.630Z,489.45
2019-05-11T01:35:33.646Z,483.34
2019-05-11T01:36:33.619Z,490.61
2019-05-11T01:37:33.616Z,490.11
2019-05-11T01:38:33.591Z,489.28
2019-05-11T01:39:33.588Z,488.59
2019-05-11T01:40:33.595Z,490.28
2019-05-11T01:41:33.560Z,487.42
2019-05-11T01:42:33.546Z,488.76
2019-05-11T01:43:33.543Z,487.19
2019-05-11T01:44:33.533Z,489.53
2019-05-11T01:45:33.548Z,487.90
2019-05-11T01:46:33.506Z,488.95
2019-05-11T01:47:33.495Z,487.69
2019-05-11T01:48:33.493Z,488.19
2019-05-11T01:49:33.460Z,486.79
2019-05-11T01:50:33.486Z,488.21
2019-05-11T01:51:33.448Z,490.57
2019-05-11T01:52:33.442Z,480.29
2019-05-11T01:53:33.421Z,489.98
2019-05-11T01:54:33.416Z,487.29
2019-05-11T01:55:33.422Z,489.30
2019-05-11T01:56:33.386Z,491.88
2019-05-11T01:57:33.375Z,491.69
2019-05-11T01:58:33.371Z,491.42
2019-05-11T01:59:33.364Z,489.05
2019-05-11T02:00:33.375Z,490.71
2019-05-11T02:01:33.348Z,490.44
2019-05-11T02:02:33.369Z,491.62
2019-05-11T02:03:33.312Z,490.64
2019-05-11T02:04:33.298Z,490.58
2019-05-11T02:05:33.314Z,487.74
2019-05-11T02:06:33.279Z,486.50
2019-05-11T02:07:33.274Z,491.52
2019-05-11T02:08:33.264Z,485.71
2019-05-11T02:09:33.246Z,485.90
2019-05-11T02:10:33.276Z,486.16
2019-05-11T02:11:33.237Z,484.05
2019-05-11T02:12:33.210Z,484.23
2019-05-11T02:13:33.204Z,482.88
2019-05-11T02:14:33.181Z,480.42
2019-05-11T02:15:33.190Z,488.18
2019-05-11T02:16:33.198Z,487.32
2019-05-11T02:17:33.162Z,487.94
2019-05-11T02:18:33.157Z,485.84
2019-05-11T02:19:33.144Z,485.52
2019-05-11T02:20:33.122Z,483.60
2019-05-11T02:21:33.125Z,485.29
2019-05-11T02:22:33.105Z,483.36
2019-05-11T02:23:33.083Z,486.59
2019-05-11T02:24:33.091Z,478.50
2019-05-11T02:25:33.074Z,480.90
2019-05-11T02:26:33.069Z,477.66
2019-05-11T02:27:33.046Z,478.36
2019-05-11T02:28:33.035Z,487.25
2019-05-11T02:29:33.018Z,487.35
2019-05-11T02:30:33.026Z,487.52
2019-05-11T02:31:33.020Z,485.78
2019-05-11T02:32:33.003Z,483.15
2019-05-11T02:33:32.974Z,486.05
2019-05-11T02:34:32.967Z,486.11
2019-05-11T02:35:32.968Z,480.81
2019-05-11T02:36:32.982Z,483.61
2019-05-11T02:37:32.935Z,479.29
2019-05-11T02:38:32.923Z,478.96
2019-05-11T02:39:32.928Z,477.96
2019-05-11T02:40:32.904Z,485.86
2019-05-11T02:41:36.993Z,486.97
2019-05-11T02:42:32.873Z,489.94
2019-05-11T02:43:32.864Z,487.75
2019-05-11T02:44:32.861Z,483.92
2019-05-11T02:45:32.857Z,487.19
2019-05-11T02:46:32.838Z,477.43
2019-05-11T02:47:32.845Z,486.72
2019-05-11T02:48:32.810Z,479.01
2019-05-11T02:49:32.793Z,488.73
2019-05-11T02:50:32.785Z,488.86
2019-05-11T02:51:32.773Z,482.02
2019-05-11T02:52:32.801Z,484.62
2019-05-11T02:53:32.747Z,487.04
2019-05-11T02:54:32.758Z,487.63
2019-05-11T02:55:32.739Z,486.92
2019-05-11T02:56:32.756Z,484.78
2019-05-11T02:57:32.737Z,483.49
2019-05-11T02:58:32.711Z,491.96
2019-05-11T02:59:32.681Z,487.82
2019-05-11T03:00:32.682Z,484.15
2019-05-11T03:01:32.696Z,488.16
2019-05-11T03:02:32.791Z,489.72
2019-05-11T03:03:32.641Z,487.83
2019-05-11T03:04:32.641Z,484.25
2019-05-11T03:05:32.625Z,487.53
2019-05-11T03:06:32.627Z,484.16
2019-05-11T03:07:32.622Z,485.42
2019-05-11T03:08:32.582Z,485.01
2019-05-11T03:09:32.577Z,483.01
2019-05-11T03:10:32.582Z,487.13
2019-05-11T03:11:32.561Z,486.88
2019-05-11T03:12:32.606Z,483.96
2019-05-11T03:13:32.544Z,478.89
2019-05-11T03:14:32.526Z,483.25
2019-05-11T03:15:32.512Z,477.61
2019-05-11T03:16:32.502Z,480.93
2019-05-11T03:17:32.516Z,481.77
2019-05-11T03:18:32.476Z,481.26
2019-05-11T03:19:32.480Z,482.75
2019-05-11T03:20:32.457Z,483.69
2019-05-11T03:21:32.436Z,482.20
2019-05-11T03:22:32.459Z,483.24
2019-05-11T03:23:32.422Z,483.26
2019-05-11T03:24:32.415Z,482.85
2019-05-11T03:25:32.420Z,483.84
2019-05-11T03:26:32.389Z,487.97
2019-05-11T03:27:32.424Z,483.18
2019-05-11T03:28:32.363Z,488.74
2019-05-11T03:29:32.358Z,489.33
2019-05-11T03:30:32.346Z,489.63
2019-05-11T03:31:32.323Z,491.93
2019-05-11T03:32:32.352Z,484.03
2019-05-11T03:33:32.324Z,491.05
2019-05-11T03:34:32.297Z,492.05
2019-05-11T03:35:32.309Z,485.50
2019-05-11T03:36:32.282Z,484.42
2019-05-11T03:37:32.292Z,486.36
2019-05-11T03:38:32.257Z,484.96
2019-05-11T03:39:32.237Z,485.91
2019-05-11T03:40:32.234Z,487.31
2019-05-11T03:41:32.221Z,486.01
2019-05-11T03:42:32.242Z,487.96
2019-05-11T03:43:32.229Z,487.23
2019-05-11T03:44:32.197Z,491.03
2019-05-11T03:45:32.178Z,492.43
2019-05-11T03:46:32.167Z,491.73
2019-05-11T03:47:32.156Z,482.88
2019-05-11T03:48:32.153Z,487.15
2019-05-11T03:49:32.137Z,485.57
2019-05-11T03:50:32.143Z,484.39
2019-05-11T03:51:32.113Z,490.72
2019-05-11T03:52:32.099Z,484.61
2019-05-11T03:53:32.113Z,492.36
2019-05-11T03:54:32.090Z,489.18
2019-05-11T03:55:32.073Z,490.41
2019-05-11T03:56:32.062Z,490.69
2019-05-11T03:57:32.039Z,489.23
2019-05-11T03:58:32.071Z,489.59
2019-05-11T03:59:32.030Z,488.35
2019-05-11T04:00:32.013Z,488.28
2019-05-11T04:01:32.011Z,489.12
2019-05-11T04:02:31.987Z,487.95
2019-05-11T04:03:31.999Z,489.88
2019-05-11T04:04:31.963Z,489.05
2019-05-11T04:05:31.945Z,487.74
2019-05-11T04:06:31.949Z,486.86
2019-05-11T04:07:31.928Z,486.58
2019-05-11T04:08:31.946Z,486.93
2019-05-11T04:09:31.914Z,487.28
2019-05-11T04:10:31.910Z,483.25
2019-05-11T04:11:31.896Z,486.75
2019-05-11T04:12:35.143Z,485.93
2019-05-11T04:13:31.892Z,483.08
2019-05-11T04:14:31.864Z,483.71
2019-05-11T04:15:31.857Z,482.98
2019-05-11T04:16:31.837Z,482.23
2019-05-11T04:17:31.816Z,482.45
2019-05-11T04:18:31.821Z,482.90
2019-05-11T04:19:31.803Z,481.79
2019-05-11T04:20:31.776Z,484.59
2019-05-11T04:21:31.777Z,479.46
2019-05-11T04:22:31.778Z,469.07
2019-05-11T04:23:31.788Z,477.84
2019-05-11T04:24:31.743Z,479.35
2019-05-11T04:25:31.773Z,474.58
2019-05-11T04:26:31.717Z,476.31
2019-05-11T04:27:31.718Z,482.45
2019-05-11T04:28:31.692Z,481.52
2019-05-11T04:29:31.724Z,480.05
2019-05-11T04:30:31.666Z,480.01
2019-05-11T04:31:31.667Z,485.91
2019-05-11T04:32:31.647Z,476.71
2019-05-11T04:33:33.231Z,484.29
2019-05-11T04:34:31.665Z,484.72
2019-05-11T04:35:31.630Z,485.74
2019-05-11T04:36:31.610Z,489.10
2019-05-11T04:37:31.647Z,491.48
2019-05-11T04:38:31.586Z,485.25
2019-05-11T04:39:31.601Z,493.23
2019-05-11T04:40:31.566Z,493.69
2019-05-11T04:41:31.560Z,493.06
2019-05-11T04:42:31.561Z,491.03
2019-05-11T04:43:31.522Z,489.33
2019-05-11T04:44:31.546Z,485.24
2019-05-11T04:45:31.509Z,489.33
2019-05-11T04:46:31.503Z,484.23
2019-05-11T04:47:31.491Z,483.59
2019-05-11T04:48:31.481Z,490.45
2019-05-11T04:49:31.498Z,488.13
2019-05-11T04:50:31.457Z,484.07
2019-05-11T04:51:31.446Z,488.15
2019-05-11T04:52:31.431Z,489.56
2019-05-11T04:53:31.437Z,490.14
2019-05-11T04:54:31.442Z,480.85
2019-05-11T04:55:31.406Z,486.56
2019-05-11T04:56:31.387Z,479.92
2019-05-11T04:57:31.382Z,482.68
2019-05-11T04:58:31.371Z,489.13
2019-05-11T04:59:31.380Z,482.02
2019-05-11T05:00:31.344Z,481.83
2019-05-11T05:01:31.329Z,489.95
2019-05-11T05:02:31.322Z,489.63
2019-05-11T05:03:40.241Z,488.10
2019-05-11T05:04:32.328Z,491.68
2019-05-11T05:05:31.296Z,490.87
2019-05-11T05:06:31.275Z,489.20
2019-05-11T05:07:31.259Z,489.10
2019-05-11T05:08:31.246Z,487.68
2019-05-11T05:09:36.163Z,489.16
2019-05-11T05:10:32.233Z,491.39
2019-05-11T05:11:36.850Z,491.39
2019-05-11T05:12:32.215Z,492.73
2019-05-11T05:13:31.532Z,493.71
2019-05-11T05:14:31.206Z,482.54
2019-05-11T05:15:31.180Z,492.18
2019-05-11T05:16:31.634Z,492.77
2019-05-11T05:17:31.159Z,489.60
2019-05-11T05:18:31.141Z,489.04
2019-05-11T05:19:31.175Z,490.95
2019-05-11T05:20:31.118Z,487.65
2019-05-11T05:21:31.115Z,488.30
2019-05-11T05:22:31.098Z,488.53
2019-05-11T05:23:31.099Z,485.38
2019-05-11T05:24:31.090Z,495.32
2019-05-11T05:25:31.080Z,491.52
2019-05-11T05:26:31.055Z,492.25
2019-05-11T05:27:31.050Z,498.57
2019-05-11T05:28:31.036Z,499.03
2019-05-11T05:29:31.016Z,496.76
2019-05-11T05:30:31.028Z,493.93
2019-05-11T05:31:30.992Z,493.87
2019-05-11T05:32:30.994Z,490.70
2019-05-11T05:33:30.982Z,493.66
2019-05-11T05:34:30.964Z,494.57
2019-05-11T05:35:30.979Z,493.26
2019-05-11T05:36:30.945Z,494.59
2019-05-11T05:37:30.999Z,492.16
2019-05-11T05:38:30.913Z,492.36
2019-05-11T05:39:30.900Z,496.98
2019-05-11T05:40:30.930Z,496.65
2019-05-11T05:41:30.892Z,493.64
2019-05-11T05:42:30.887Z,494.68
2019-05-11T05:43:30.873Z,492.81
2019-05-11T05:44:30.856Z,495.37
2019-05-11T05:45:30.873Z,496.20
2019-05-11T05:46:30.845Z,496.02
2019-05-11T05:47:30.825Z,489.63
2019-05-11T05:48:30.806Z,495.12
2019-05-11T05:49:30.796Z,491.78
2019-05-11T05:50:30.804Z,492.16
2019-05-11T05:51:30.776Z,496.65
2019-05-11T05:52:30.767Z,495.21
2019-05-11T05:53:30.761Z,496.32
2019-05-11T05:54:30.737Z,494.57
2019-05-11T05:55:30.739Z,496.36
2019-05-11T05:56:30.726Z,492.25
2019-05-11T05:57:30.710Z,498.70
2019-05-11T05:58:30.697Z,493.87
2019-05-11T05:59:30.693Z,496.03
2019-05-11T06:00:30.702Z,495.51
2019-05-11T06:01:30.675Z,494.68
2019-05-11T06:02:30.648Z,498.54
2019-05-11T06:03:30.647Z,498.79
2019-05-11T06:04:30.625Z,495.21
2019-05-11T06:05:30.663Z,502.65
2019-05-11T06:06:30.613Z,499.48
2019-05-11T06:07:30.602Z,501.38
2019-05-11T06:08:30.602Z,497.48
2019-05-11T06:09:30.583Z,498.43
2019-05-11T06:10:30.568Z,498.43
2019-05-11T06:11:30.571Z,499.16
2019-05-11T06:12:30.552Z,499.39
2019-05-11T06:13:44.739Z,498.85
2019-05-11T06:14:31.517Z,496.44
2019-05-11T06:15:30.504Z,496.98
2019-05-11T06:16:30.520Z,497.76
2019-05-11T06:17:30.484Z,503.55
2019-05-11T06:18:30.481Z,502.54
2019-05-11T06:19:30.465Z,502.29
2019-05-11T06:20:30.460Z,499.53
2019-05-11T06:21:30.472Z,499.02
2019-05-11T06:22:30.432Z,501.38
2019-05-11T06:23:30.417Z,500.06
2019-05-11T06:24:30.423Z,499.15
2019-05-11T06:25:30.400Z,499.82
2019-05-11T06:26:30.428Z,499.10
2019-05-11T06:27:30.370Z,499.64
2019-05-11T06:28:30.364Z,503.07
2019-05-11T06:29:30.352Z,492.61
2019-05-11T06:30:30.348Z,501.33
2019-05-11T06:31:30.362Z,497.88
2019-05-11T06:32:30.324Z,498.75
2019-05-11T06:33:30.308Z,498.60
2019-05-11T06:34:30.296Z,507.81
2019-05-11T06:35:30.290Z,506.67
2019-05-11T06:36:30.300Z,509.79
2019-05-11T06:37:30.258Z,508.57
2019-05-11T06:38:30.258Z,511.84
2019-05-11T06:39:30.241Z,511.64
2019-05-11T06:40:30.227Z,509.73
2019-05-11T06:41:30.235Z,510.68
2019-05-11T06:42:30.202Z,509.02
2019-05-11T06:43:30.198Z,509.17
2019-05-11T06:44:30.183Z,509.15
2019-05-11T06:45:30.171Z,507.42
2019-05-11T06:46:30.190Z,503.39
2019-05-11T06:47:30.158Z,503.80
2019-05-11T06:48:30.134Z,502.91
2019-05-11T06:49:30.135Z,504.06
2019-05-11T06:50:30.111Z,502.79
2019-05-11T06:51:30.138Z,503.23
2019-05-11T06:52:30.099Z,503.51
2019-05-11T06:53:30.084Z,501.40
2019-05-11T06:54:30.067Z,498.13
2019-05-11T06:55:30.062Z,501.82
2019-05-11T06:56:30.079Z,496.44
2019-05-11T06:57:30.055Z,505.75
2019-05-11T06:58:30.037Z,514.48
2019-05-11T06:59:30.038Z,510.91
2019-05-11T07:00:30.023Z,508.92
2019-05-11T07:01:29.999Z,509.10
2019-05-11T07:02:30.030Z,508.24
2019-05-11T07:03:29.977Z,506.67
2019-05-11T07:04:29.963Z,509.62
2019-05-11T07:05:29.955Z,509.93
2019-05-11T07:06:30.667Z,508.19
2019-05-11T07:07:29.958Z,506.80
2019-05-11T07:08:29.917Z,507.09
2019-05-11T07:09:29.913Z,503.31
2019-05-11T07:10:29.908Z,507.63
2019-05-11T07:11:29.886Z,504.68
2019-05-11T07:12:29.902Z,504.11
2019-05-11T07:13:29.867Z,502.44
2019-05-11T07:14:29.857Z,502.97
2019-05-11T07:15:29.833Z,505.48
2019-05-11T07:16:29.829Z,504.87
2019-05-11T07:17:29.857Z,506.65
2019-05-11T07:18:29.801Z,503.59
2019-05-11T07:19:29.799Z,504.35
2019-05-11T07:20:29.798Z,501.51
2019-05-11T07:21:29.769Z,500.18
2019-05-11T07:22:29.789Z,500.10
2019-05-11T07:23:29.760Z,500.36
2019-05-11T07:24:29.752Z,500.46
2019-05-11T07:25:29.747Z,496.36
2019-05-11T07:26:29.727Z,498.75
2019-05-11T07:27:29.757Z,499.82
2019-05-11T07:28:29.728Z,498.61
2019-05-11T07:29:29.704Z,503.12
2019-05-11T07:30:29.692Z,503.35
2019-05-11T07:31:29.674Z,504.82
2019-05-11T07:32:29.675Z,504.66
2019-05-11T07:33:29.651Z,500.80
2019-05-11T07:34:29.631Z,502.61
2019-05-11T07:35:29.621Z,502.51
2019-05-11T07:36:29.614Z,501.24
2019-05-11T07:37:29.618Z,502.61
2019-05-11T07:38:29.600Z,503.53
2019-05-11T07:39:29.574Z,502.69
2019-05-11T07:40:29.556Z,507.30
2019-05-11T07:41:29.550Z,506.91
2019-05-11T07:42:29.564Z,504.19
2019-05-11T07:43:29.536Z,503.57
2019-05-11T07:44:38.229Z,501.98
2019-05-11T07:45:30.502Z,503.31
2019-05-11T07:46:29.500Z,502.36
2019-05-11T07:47:29.505Z,501.65
2019-05-11T07:48:29.475Z,499.57
2019-05-11T07:49:29.467Z,507.29
2019-05-11T07:50:29.469Z,507.92
2019-05-11T07:51:29.469Z,508.24
2019-05-11T07:52:29.462Z,507.07
2019-05-11T07:53:29.426Z,506.33
2019-05-11T07:54:29.405Z,503.58
2019-05-11T07:55:29.404Z,504.36
2019-05-11T07:56:29.399Z,504.04
2019-05-11T07:57:29.396Z,503.31
2019-05-11T07:58:29.365Z,499.06
2019-05-11T07:59:29.349Z,501.44
2019-05-11T08:00:29.338Z,507.84
2019-05-11T08:01:29.344Z,508.25
2019-05-11T08:02:32.329Z,506.72
2019-05-11T08:03:29.300Z,500.42
2019-05-11T08:04:29.299Z,503.58
2019-05-11T08:05:29.300Z,506.50
2019-05-11T08:06:29.288Z,505.61
2019-05-11T08:07:29.295Z,503.96
2019-05-11T08:08:29.249Z,499.32
2019-05-11T08:09:29.244Z,501.90
2019-05-11T08:10:29.229Z,499.13
2019-05-11T08:11:31.544Z,499.80
2019-05-11T08:12:29.261Z,498.21
2019-05-11T08:13:29.218Z,497.11
2019-05-11T08:14:29.183Z,501.29
2019-05-11T08:15:29.787Z,499.77
2019-05-11T08:16:29.221Z,500.85
2019-05-11T08:17:29.157Z,505.48
2019-05-11T08:18:29.147Z,503.99
2019-05-11T08:19:29.127Z,504.89
2019-05-11T08:20:29.114Z,504.22
2019-05-11T08:21:29.105Z,505.75
2019-05-11T08:22:29.111Z,502.53
2019-05-11T08:23:29.117Z,500.99
2019-05-11T08:24:29.083Z,502.38
2019-05-11T08:25:29.062Z,500.40
2019-05-11T08:26:29.052Z,496.03
2019-05-11T08:27:29.039Z,496.96
2019-05-11T08:28:29.041Z,500.48
2019-05-11T08:29:29.025Z,499.93
2019-05-11T08:30:28.999Z,500.12
2019-05-11T08:31:29.001Z,503.33
2019-05-11T08:32:28.984Z,499.31
2019-05-11T08:33:29.003Z,498.66
2019-05-11T08:34:28.959Z,494.89
2019-05-11T08:35:31.287Z,496.85
2019-05-11T08:36:29.176Z,498.49
2019-05-11T08:37:28.938Z,493.40
2019-05-11T08:38:28.942Z,491.29
2019-05-11T08:39:29.026Z,498.81
2019-05-11T08:40:29.070Z,497.72
2019-05-11T08:41:28.890Z,501.89
2019-05-11T08:42:29.109Z,500.57
2019-05-11T08:43:28.881Z,507.90
2019-05-11T08:44:28.985Z,505.02
2019-05-11T08:45:28.843Z,507.16
2019-05-11T08:46:28.824Z,506.95
2019-05-11T08:47:28.822Z,510.63
2019-05-11T08:48:28.828Z,509.98
2019-05-11T08:49:28.922Z,508.90
2019-05-11T08:50:28.785Z,509.48
2019-05-11T08:51:28.779Z,507.11
2019-05-11T08:52:28.765Z,505.03
2019-05-11T08:53:28.775Z,503.28
2019-05-11T08:54:28.997Z,503.02
2019-05-11T08:55:29.109Z,507.26
2019-05-11T08:56:29.014Z,503.39
2019-05-11T08:57:28.729Z,506.09
2019-05-11T08:58:28.717Z,511.79
2019-05-11T08:59:28.711Z,512.21
2019-05-11T09:00:28.671Z,506.43
2019-05-11T09:01:28.855Z,513.63
2019-05-11T09:02:28.655Z,510.96
2019-05-11T09:03:28.663Z,508.69
2019-05-11T09:04:29.007Z,510.47
2019-05-11T09:05:28.624Z,513.35
2019-05-11T09:06:28.591Z,509.52
2019-05-11T09:07:28.598Z,504.81
2019-05-11T09:08:28.612Z,505.64
2019-05-11T09:09:28.869Z,506.66
2019-05-11T09:10:28.561Z,503.00
2019-05-11T09:11:28.545Z,503.14
2019-05-11T09:12:28.941Z,503.27
2019-05-11T09:13:28.592Z,508.30
2019-05-11T09:14:28.616Z,508.90
2019-05-11T09:15:36.618Z,508.34
2019-05-11T09:16:29.485Z,502.10
2019-05-11T09:17:28.999Z,499.70
2019-05-11T09:18:28.509Z,492.71
2019-05-11T09:19:28.721Z,499.67
2019-05-11T09:20:28.653Z,498.52
2019-05-11T09:21:28.444Z,498.93
2019-05-11T09:22:28.605Z,497.58
2019-05-11T09:23:34.604Z,499.92
2019-05-11T09:24:29.401Z,490.66
2019-05-11T09:25:28.391Z,501.52
2019-05-11T09:26:28.735Z,503.49
2019-05-11T09:27:28.723Z,505.18
2019-05-11T09:28:29.489Z,502.81
2019-05-11T09:29:28.391Z,500.76
2019-05-11T09:30:28.944Z,499.13
2019-05-11T09:31:28.390Z,501.11
2019-05-11T09:32:28.611Z,508.28
2019-05-11T09:33:28.461Z,504.74
2019-05-11T09:34:28.889Z,506.88
2019-05-11T09:35:29.267Z,507.45
2019-05-11T09:36:28.678Z,500.06
2019-05-11T09:37:28.250Z,503.38
2019-05-11T09:38:28.271Z,500.18
2019-05-11T09:39:28.284Z,502.57
2019-05-11T09:40:28.463Z,498.16
2019-05-11T09:41:28.956Z,498.67
2019-05-11T09:42:28.650Z,497.88
2019-05-11T09:43:28.481Z,496.90
2019-05-11T09:44:28.803Z,498.92
2019-05-11T09:45:28.159Z,501.47
2019-05-11T09:46:28.168Z,498.89
2019-05-11T09:47:28.160Z,497.37
2019-05-11T09:48:28.469Z,499.26
2019-05-11T09:49:43.259Z,499.03
2019-05-11T09:50:29.109Z,505.12
2019-05-11T09:51:28.756Z,505.37
2019-05-11T09:52:28.118Z,504.07
2019-05-11T09:53:28.390Z,499.48
2019-05-11T09:54:28.972Z,490.34
2019-05-11T09:55:28.403Z,491.76
2019-05-11T09:56:28.741Z,486.24
2019-05-11T09:57:28.033Z,484.84
2019-05-11T09:58:28.174Z,489.00
2019-05-11T09:59:28.347Z,490.64
2019-05-11T10:00:28.354Z,491.22
2019-05-11T10:01:29.618Z,491.95
2019-05-11T10:02:28.124Z,500.78
2019-05-11T10:03:28.268Z,496.32
2019-05-11T10:04:28.828Z,493.77
2019-05-11T10:05:28.672Z,491.22
2019-05-11T10:06:28.261Z,494.85
2019-05-11T10:07:28.602Z,495.27
2019-05-11T10:08:28.695Z,496.21
2019-05-11T10:09:28.202Z,506.42
2019-05-11T10:10:28.927Z,515.20
2019-05-11T10:11:28.300Z,512.00
2019-05-11T10:12:28.578Z,506.90
2019-05-11T10:13:27.972Z,505.50
2019-05-11T10:14:28.872Z,502.90
2019-05-11T10:15:28.079Z,503.64
2019-05-11T10:16:28.164Z,503.02
2019-05-11T10:17:28.778Z,501.13
2019-05-11T10:18:28.281Z,501.25
2019-05-11T10:19:28.448Z,503.13
2019-05-11T10:20:28.642Z,506.56
2019-05-11T10:21:28.041Z,512.55
2019-05-11T10:22:27.944Z,503.67
2019-05-11T10:23:27.941Z,507.19
2019-05-11T10:24:28.473Z,503.07
2019-05-11T10:25:28.741Z,506.35
2019-05-11T10:26:28.045Z,502.30
2019-05-11T10:27:28.057Z,504.82
2019-05-11T10:28:28.454Z,503.44
2019-05-11T10:29:28.920Z,500.32
2019-05-11T10:30:28.176Z,498.05
2019-05-11T10:31:28.475Z,498.74
2019-05-11T10:32:28.775Z,497.45
2019-05-11T10:33:28.236Z,496.47
2019-05-11T10:34:28.511Z,496.76
2019-05-11T10:35:28.827Z,500.21
2019-05-11T10:36:28.108Z,499.98
2019-05-11T10:37:28.282Z,501.77
2019-05-11T10:38:28.542Z,497.31
2019-05-11T10:39:28.081Z,522.33
2019-05-11T10:40:28.297Z,497.45
2019-05-11T10:41:28.514Z,528.97
2019-05-11T10:42:28.339Z,505.54
2019-05-11T10:43:28.865Z,527.35
2019-05-11T10:44:28.182Z,506.82
2019-05-11T10:45:28.534Z,534.46
2019-05-11T10:46:28.768Z,506.16
2019-05-11T10:47:27.925Z,527.68
2019-05-11T10:48:28.225Z,500.80
2019-05-11T10:49:28.877Z,521.34
2019-05-11T10:50:28.733Z,497.34
2019-05-11T10:51:28.786Z,524.98
2019-05-11T10:52:28.601Z,501.72
2019-05-11T10:53:27.961Z,520.61
2019-05-11T10:54:28.658Z,501.96
2019-05-11T10:55:27.986Z,526.38
2019-05-11T10:56:28.462Z,507.67
2019-05-11T10:57:28.335Z,524.89
2019-05-11T10:58:28.570Z,497.78
2019-05-11T10:59:28.246Z,519.92
2019-05-11T11:00:28.280Z,505.67
2019-05-11T11:01:28.554Z,506.90
2019-05-11T11:02:28.019Z,501.85
2019-05-11T11:03:28.426Z,529.20
2019-05-11T11:04:28.779Z,501.37
2019-05-11T11:05:27.928Z,522.24
2019-05-11T11:06:28.181Z,499.73
2019-05-11T11:07:28.842Z,519.34
2019-05-11T11:08:27.849Z,499.76
2019-05-11T11:09:28.184Z,518.27
2019-05-11T11:10:28.640Z,520.91
2019-05-11T11:11:27.912Z,519.83
2019-05-11T11:12:27.884Z,525.47
2019-05-11T11:13:28.136Z,517.48
2019-05-11T11:14:28.660Z,505.03
2019-05-11T11:15:28.833Z,521.88
2019-05-11T11:16:37.029Z,496.34
2019-05-11T11:17:28.713Z,517.31
2019-05-11T11:18:28.787Z,493.77
2019-05-11T11:19:28.941Z,494.52
2019-05-11T11:20:28.067Z,494.76
2019-05-11T11:21:27.889Z,519.42
2019-05-11T11:22:38.348Z,504.80
2019-05-11T11:23:28.527Z,518.83
2019-05-11T11:24:28.666Z,502.54
2019-05-11T11:25:28.427Z,531.49
2019-05-11T11:26:28.495Z,509.81
2019-05-11T11:27:28.996Z,527.49
2019-05-11T11:28:27.982Z,511.53
2019-05-11T11:29:28.794Z,529.09
2019-05-11T11:30:28.636Z,505.27
2019-05-11T11:31:28.785Z,520.96
2019-05-11T11:32:27.890Z,497.01
2019-05-11T11:33:27.680Z,520.41
2019-05-11T11:34:28.064Z,497.16
2019-05-11T11:35:27.875Z,525.96
2019-05-11T11:36:28.413Z,503.64
2019-05-11T11:37:28.128Z,527.62
2019-05-11T11:38:28.518Z,501.27
2019-05-11T11:39:28.304Z,525.47
2019-05-11T11:40:28.204Z,501.63
2019-05-11T11:41:26.883Z,521.54
2019-05-11T11:42:28.289Z,490.51
2019-05-11T11:43:28.761Z,495.74
2019-05-11T11:44:28.606Z,502.37
2019-05-11T11:45:28.815Z,525.75
2019-05-11T11:46:27.732Z,527.91
2019-05-11T11:47:28.193Z,521.90
2019-05-11T11:48:27.999Z,499.46
2019-05-11T11:49:28.272Z,525.68
2019-05-11T11:50:28.338Z,497.05
2019-05-11T11:51:28.662Z,506.47
2019-05-11T11:52:27.709Z,501.85
2019-05-11T11:53:27.913Z,500.70
2019-05-11T11:54:28.670Z,504.52
2019-05-11T11:55:28.813Z,495.15
2019-05-11T11:56:28.380Z,488.94
2019-05-11T11:57:28.382Z,504.26
2019-05-11T11:58:27.726Z,511.46
2019-05-11T11:59:28.589Z,526.62
2019-05-11T12:00:28.818Z,499.90
2019-05-11T12:01:28.080Z,526.95
2019-05-11T12:02:27.879Z,498.60
2019-05-11T12:03:27.716Z,501.86
2019-05-11T12:04:28.357Z,503.01
2019-05-11T12:05:28.249Z,525.64
2019-05-11T12:06:28.027Z,498.42
2019-05-11T12:07:28.548Z,502.63
2019-05-11T12:08:28.185Z,505.15
2019-05-11T12:09:28.642Z,526.78
2019-05-11T12:10:28.513Z,525.74
2019-05-11T12:11:27.942Z,522.39
2019-05-11T12:12:27.967Z,493.83
2019-05-11T12:13:29.085Z,517.52
2019-05-11T12:14:28.288Z,496.56
2019-05-11T12:15:28.307Z,519.34
2019-05-11T12:16:28.129Z,525.80
2019-05-11T12:17:28.560Z,527.04
2019-05-11T12:18:28.591Z,501.86
2019-05-11T12:19:27.871Z,522.03
2019-05-11T12:20:28.495Z,499.22
2019-05-11T12:21:27.689Z,519.30
2019-05-11T12:22:28.028Z,495.67
2019-05-11T12:23:28.330Z,494.88
2019-05-11T12:24:28.616Z,497.22
2019-05-11T12:25:27.766Z,516.50
2019-05-11T12:26:28.153Z,491.29
2019-05-11T12:27:28.530Z,515.24
2019-05-11T12:28:27.660Z,492.13
2019-05-11T12:29:28.158Z,516.64